createdAt,value
2018-03-16T00:01:13.155Z,17.93
2018-03-16T00:03:41.716Z,20.77
2018-03-16T00:06:09.517Z,18.60
2018-03-16T00:08:38.095Z,20.40
2018-03-16T00:11:09.535Z,18.03
2018-03-16T00:13:36.991Z,17.80
2018-03-16T00:16:08.268Z,18.90
2018-03-16T00:18:34.906Z,18.93
2018-03-16T00:21:01.396Z,19.13
2018-03-16T00:23:34.220Z,19.47
2018-03-16T00:26:00.883Z,21.47
2018-03-16T00:28:28.795Z,19.70
2018-03-16T00:30:55.669Z,20.20
2018-03-16T00:33:22.960Z,20.07
2018-03-16T00:35:49.672Z,18.53
2018-03-16T00:38:18.179Z,19.97
2018-03-16T00:40:47.615Z,20.67
2018-03-16T00:43:14.328Z,21.03
2018-03-16T00:45:42.743Z,20.47
2018-03-16T00:48:12.067Z,18.10
2018-03-16T00:50:39.431Z,18.80
2018-03-16T00:53:11.629Z,19.20
2018-03-16T00:55:40.452Z,17.77
2018-03-16T00:58:08.851Z,18.40
2018-03-16T01:00:38.247Z,17.67
2018-03-16T01:03:06.355Z,17.27
2018-03-16T01:05:35.527Z,18.63
2018-03-16T01:08:07.184Z,16.87
2018-03-16T01:11:01.276Z,17.00
2018-03-16T01:13:28.567Z,16.60
2018-03-16T01:16:01.839Z,17.07
2018-03-16T01:18:31.308Z,17.20
2018-03-16T01:20:58.272Z,17.30
2018-03-16T01:23:27.577Z,17.00
2018-03-16T01:25:59.687Z,16.40
2018-03-16T01:28:32.243Z,17.63
2018-03-16T01:30:59.831Z,17.30
2018-03-16T01:33:30.111Z,17.90
2018-03-16T01:36:00.379Z,18.57
2018-03-16T01:38:33.111Z,17.20
2018-03-16T01:41:01.107Z,19.00
2018-03-16T01:43:31.710Z,19.20
2018-03-16T01:46:01.780Z,19.13
2018-03-16T01:48:32.125Z,18.80
2018-03-16T01:51:01.539Z,19.10
2018-03-16T01:53:34.883Z,17.23
2018-03-16T01:56:04.188Z,19.80
2018-03-16T01:58:32.092Z,19.27
2018-03-16T02:01:01.515Z,19.20
2018-03-16T02:03:41.033Z,19.70
2018-03-16T02:06:12.971Z,19.30
2018-03-16T02:08:39.818Z,19.80
2018-03-16T02:11:06.532Z,20.50
2018-03-16T02:13:39.448Z,17.93
2018-03-16T02:16:07.182Z,18.83
2018-03-16T02:18:34.406Z,20.10
2018-03-16T02:21:04.111Z,19.17
2018-03-16T02:23:31.695Z,21.60
2018-03-16T02:26:04.194Z,20.33
2018-03-16T02:28:32.459Z,21.33
2018-03-16T02:31:13.931Z,20.63
2018-03-16T02:33:43.201Z,20.70
2018-03-16T02:36:13.044Z,20.47
2018-03-16T02:38:46.190Z,20.20
2018-03-16T02:41:13.932Z,21.23
2018-03-16T02:43:44.188Z,20.97
2018-03-16T02:46:11.908Z,22.20
2018-03-16T02:48:43.503Z,20.20
2018-03-16T02:51:17.764Z,22.57
2018-03-16T02:53:53.763Z,21.93
2018-03-16T02:56:22.999Z,21.60
2018-03-16T02:58:54.328Z,20.77
2018-03-16T03:01:32.016Z,20.47
2018-03-16T03:04:04.316Z,21.63
2018-03-16T03:06:35.965Z,21.17
2018-03-16T03:09:10.290Z,19.53
2018-03-16T03:11:41.000Z,19.80
2018-03-16T03:14:08.739Z,18.43
2018-03-16T03:16:39.680Z,20.40
2018-03-16T03:19:06.421Z,18.50
2018-03-16T03:21:37.741Z,17.80
2018-03-16T03:24:07.044Z,18.10
2018-03-16T03:26:39.372Z,19.10
2018-03-16T03:29:07.091Z,18.33
2018-03-16T03:31:35.757Z,17.17
2018-03-16T03:34:10.492Z,16.53
2018-03-16T03:36:36.994Z,17.97
2018-03-16T03:39:04.288Z,16.30
2018-03-16T03:41:33.561Z,16.40
2018-03-16T03:44:33.771Z,17.13
2018-03-16T03:47:06.536Z,14.40
2018-03-16T03:49:34.198Z,15.47
2018-03-16T03:52:01.809Z,16.67
2018-03-16T03:54:30.028Z,15.57
2018-03-16T03:57:02.210Z,16.97
2018-03-16T03:59:32.199Z,16.73
2018-03-16T04:01:59.087Z,16.80
2018-03-16T04:04:30.084Z,16.57
2018-03-16T04:07:23.192Z,22.07
2018-03-16T04:09:53.537Z,17.90
2018-03-16T04:12:20.907Z,17.80
2018-03-16T04:14:49.179Z,15.87
2018-03-16T04:17:36.924Z,14.47
2018-03-16T04:20:23.843Z,15.03
2018-03-16T04:22:52.319Z,15.23
2018-03-16T04:25:27.808Z,14.67
2018-03-16T04:28:05.295Z,15.23
2018-03-16T04:31:01.315Z,16.00
2018-03-16T04:33:41.080Z,16.60
2018-03-16T04:36:11.498Z,15.47
2018-03-16T04:38:43.188Z,15.13
2018-03-16T04:41:11.935Z,16.50
2018-03-16T04:43:40.199Z,15.50
2018-03-16T04:46:07.147Z,15.60
2018-03-16T04:48:46.404Z,15.30
2018-03-16T04:51:14.707Z,15.10
2018-03-16T04:53:52.810Z,13.63
2018-03-16T04:56:23.070Z,12.87
2018-03-16T04:58:49.739Z,13.37
2018-03-16T05:01:27.951Z,13.10
2018-03-16T05:04:04.485Z,12.17
2018-03-16T05:06:32.152Z,11.73
2018-03-16T05:08:59.776Z,12.80
2018-03-16T05:11:30.885Z,12.03
2018-03-16T05:14:00.428Z,12.17
2018-03-16T05:16:27.080Z,12.00
2018-03-16T05:18:56.372Z,11.70
2018-03-16T05:21:29.896Z,10.60
2018-03-16T05:24:02.268Z,7.47
2018-03-16T05:26:36.739Z,7.30
2018-03-16T05:29:14.923Z,7.20
2018-03-16T05:31:44.168Z,7.70
2018-03-16T05:34:11.496Z,7.00
2018-03-16T05:36:40.139Z,7.17
2018-03-16T05:39:07.640Z,7.20
2018-03-16T05:41:36.823Z,6.43
2018-03-16T05:44:16.564Z,6.17
2018-03-16T05:46:45.839Z,7.33
2018-03-16T05:49:14.274Z,8.60
2018-03-16T05:51:41.259Z,6.80
2018-03-16T05:54:12.785Z,7.77
2018-03-16T05:56:39.692Z,7.50
2018-03-16T05:59:10.605Z,7.00
2018-03-16T06:01:38.999Z,7.07
2018-03-16T06:04:08.215Z,6.97
2018-03-16T06:06:41.615Z,6.20
2018-03-16T06:09:11.931Z,7.53
2018-03-16T06:11:42.351Z,6.80
2018-03-16T06:14:10.956Z,7.50
2018-03-16T06:16:37.611Z,6.23
2018-03-16T06:19:08.440Z,5.47
2018-03-16T06:21:37.868Z,5.40
2018-03-16T06:24:12.335Z,5.87
2018-03-16T06:26:39.794Z,5.27
2018-03-16T06:29:07.120Z,5.50
2018-03-16T06:31:34.556Z,5.20
2018-03-16T06:34:05.720Z,5.40
2018-03-16T06:36:33.216Z,5.13
2018-03-16T06:39:07.577Z,4.37
2018-03-16T06:41:34.143Z,4.90
2018-03-16T06:44:01.560Z,4.00
2018-03-16T06:46:29.879Z,3.93
2018-03-16T06:49:06.374Z,4.20
2018-03-16T06:51:37.560Z,4.20
2018-03-16T06:54:04.353Z,4.57
2018-03-16T06:56:31.675Z,3.97
2018-03-16T06:58:58.960Z,3.20
2018-03-16T07:01:28.912Z,4.10
2018-03-16T07:04:02.795Z,3.53
2018-03-16T07:06:31.788Z,3.77
2018-03-16T07:09:27.307Z,3.37
2018-03-16T07:11:59.815Z,3.83
2018-03-16T07:14:28.075Z,3.90
2018-03-16T07:16:57.451Z,2.97
2018-03-16T07:19:33.204Z,3.57
2018-03-16T07:22:00.721Z,3.97
2018-03-16T07:24:29.092Z,3.80
2018-03-16T07:26:58.634Z,3.73
2018-03-16T07:29:25.405Z,4.00
2018-03-16T07:31:52.758Z,3.27
2018-03-16T07:34:20.072Z,3.50
2018-03-16T07:36:50.423Z,4.07
2018-03-16T07:39:17.784Z,4.07
2018-03-16T07:41:45.394Z,3.67
2018-03-16T07:44:12.667Z,4.30
2018-03-16T07:46:45.975Z,3.30
2018-03-16T07:49:16.752Z,3.73
2018-03-16T07:52:07.732Z,3.57
2018-03-16T07:54:37.120Z,3.90
2018-03-16T07:57:06.651Z,3.63
2018-03-16T07:59:37.307Z,4.47
2018-03-16T08:02:04.899Z,3.93
2018-03-16T08:04:31.407Z,3.73
2018-03-16T08:07:04.883Z,3.90
2018-03-16T08:09:35.868Z,3.53
2018-03-16T08:12:07.959Z,3.57
2018-03-16T08:14:43.490Z,3.53
2018-03-16T08:17:38.288Z,3.37
2018-03-16T08:20:04.902Z,3.80
2018-03-16T08:22:33.478Z,4.20
2018-03-16T08:25:00.645Z,4.10
2018-03-16T08:27:27.936Z,3.70
2018-03-16T08:29:58.527Z,3.73
2018-03-16T08:32:46.255Z,3.40
2018-03-16T08:35:21.935Z,3.57
2018-03-16T08:37:53.648Z,3.70
2018-03-16T08:40:41.199Z,3.47
2018-03-16T08:43:11.415Z,3.80
2018-03-16T08:45:52.591Z,3.33
2018-03-16T08:48:33.035Z,3.67
2018-03-16T08:51:03.697Z,4.60
2018-03-16T08:53:31.363Z,4.40
2018-03-16T08:56:01.708Z,4.43
2018-03-16T08:58:31.967Z,3.70
2018-03-16T09:01:03.039Z,3.57
2018-03-16T09:03:29.508Z,3.80
2018-03-16T09:05:57.935Z,3.00
2018-03-16T09:08:58.735Z,4.10
2018-03-16T09:11:29.059Z,3.77
2018-03-16T09:13:55.560Z,3.70
2018-03-16T09:16:26.131Z,4.10
2018-03-16T09:18:56.632Z,3.70
2018-03-16T09:21:27.043Z,3.60
2018-03-16T09:23:55.768Z,3.70
2018-03-16T09:26:22.423Z,4.47
2018-03-16T09:28:51.504Z,4.50
2018-03-16T09:31:20.451Z,4.00
2018-03-16T09:33:47.913Z,3.87
2018-03-16T09:36:20.751Z,3.57
2018-03-16T09:38:49.323Z,3.60
2018-03-16T09:41:26.455Z,3.73
2018-03-16T09:43:53.668Z,3.07
2018-03-16T09:46:24.740Z,4.27
2018-03-16T09:48:52.327Z,3.57
2018-03-16T09:51:25.146Z,3.80
2018-03-16T09:54:00.081Z,5.40
2018-03-16T09:56:30.118Z,3.87
2018-03-16T09:59:13.280Z,3.50
2018-03-16T10:01:44.372Z,3.70
2018-03-16T10:04:12.487Z,3.90
2018-03-16T10:06:41.356Z,4.10
2018-03-16T10:09:08.007Z,3.93
2018-03-16T10:11:41.973Z,3.37
2018-03-16T10:14:13.114Z,3.60
2018-03-16T10:16:42.020Z,3.27
2018-03-16T10:19:14.963Z,3.40
2018-03-16T10:21:42.161Z,3.80
2018-03-16T10:24:13.147Z,4.27
2018-03-16T10:26:41.397Z,3.33
2018-03-16T10:29:28.392Z,3.67
2018-03-16T10:31:58.236Z,2.90
2018-03-16T10:34:25.824Z,4.30
2018-03-16T10:36:54.238Z,2.47
2018-03-16T10:39:34.892Z,2.83
2018-03-16T10:42:21.671Z,3.40
2018-03-16T10:44:54.018Z,2.90
2018-03-16T10:47:25.735Z,3.40
2018-03-16T10:49:57.142Z,3.00
2018-03-16T10:52:30.308Z,2.70
2018-03-16T10:55:08.143Z,3.20
2018-03-16T10:57:35.216Z,3.00
2018-03-16T11:00:03.620Z,2.20
2018-03-16T11:02:43.715Z,3.80
2018-03-16T11:05:18.050Z,2.80
2018-03-16T11:08:04.976Z,2.80
2018-03-16T11:10:35.350Z,2.30
2018-03-16T11:13:02.200Z,3.10
2018-03-16T11:15:29.804Z,1.90
2018-03-16T11:18:05.220Z,1.97
2018-03-16T11:20:36.537Z,2.70
2018-03-16T11:23:08.571Z,2.53
2018-03-16T11:25:36.536Z,2.93
2018-03-16T11:28:11.852Z,1.83
2018-03-16T11:30:45.602Z,3.13
2018-03-16T11:33:13.292Z,3.57
2018-03-16T11:35:42.020Z,2.43
2018-03-16T11:38:08.750Z,2.70
2018-03-16T11:40:36.033Z,3.23
2018-03-16T11:43:03.574Z,2.47
2018-03-16T11:45:38.148Z,1.97
2018-03-16T11:48:11.248Z,2.43
2018-03-16T11:50:38.052Z,2.33
2018-03-16T11:53:16.591Z,2.27
2018-03-16T11:55:45.492Z,2.87
2018-03-16T11:58:14.094Z,2.73
2018-03-16T12:00:45.427Z,2.67
2018-03-16T12:03:12.471Z,2.40
2018-03-16T12:05:40.708Z,1.70
2018-03-16T12:08:08.924Z,2.13
2018-03-16T12:10:36.936Z,2.00
2018-03-16T12:13:09.391Z,2.43
2018-03-16T12:15:39.119Z,2.20
2018-03-16T12:18:12.903Z,2.90
2018-03-16T12:20:41.889Z,1.80
2018-03-16T12:23:12.561Z,2.03
2018-03-16T12:25:47.123Z,2.20
2018-03-16T12:28:17.158Z,2.23
2018-03-16T12:30:51.000Z,2.37
2018-03-16T12:33:19.503Z,2.73
2018-03-16T12:36:18.180Z,2.23
2018-03-16T12:38:48.904Z,3.43
2018-03-16T12:41:16.295Z,2.33
2018-03-16T12:43:51.095Z,2.20
2018-03-16T12:46:22.024Z,1.90
2018-03-16T12:48:49.404Z,2.20
2018-03-16T12:51:17.850Z,2.47
2018-03-16T12:53:51.400Z,2.17
2018-03-16T12:56:19.175Z,1.70
2018-03-16T12:58:50.400Z,2.00
2018-03-16T13:01:25.680Z,2.00
2018-03-16T13:03:58.515Z,1.97
2018-03-16T13:06:25.031Z,1.83
2018-03-16T13:08:55.007Z,2.20
2018-03-16T13:11:22.797Z,1.83
2018-03-16T13:13:50.024Z,2.10
2018-03-16T13:16:21.154Z,2.50
2018-03-16T13:18:48.468Z,2.40
2018-03-16T13:21:26.688Z,2.63
2018-03-16T13:24:02.542Z,2.13
2018-03-16T13:26:29.080Z,1.70
2018-03-16T13:28:56.436Z,1.50
2018-03-16T13:31:29.722Z,1.57
2018-03-16T13:33:58.657Z,1.10
2018-03-16T13:36:35.401Z,1.27
2018-03-16T13:39:03.636Z,0.90
2018-03-16T13:41:30.129Z,0.80
2018-03-16T13:44:05.793Z,0.93
2018-03-16T13:46:36.249Z,1.20
2018-03-16T13:49:06.317Z,1.23
2018-03-16T13:51:41.196Z,1.60
2018-03-16T13:54:09.329Z,1.30
2018-03-16T13:56:37.565Z,1.67
2018-03-16T13:59:05.905Z,1.43
2018-03-16T14:01:43.672Z,1.57
2018-03-16T14:04:11.596Z,2.70
2018-03-16T14:06:38.987Z,2.03
2018-03-16T14:09:10.580Z,1.87
2018-03-16T14:11:37.151Z,1.73
2018-03-16T14:14:06.399Z,1.60
2018-03-16T14:16:37.627Z,1.20
2018-03-16T14:19:06.356Z,1.90
2018-03-16T14:21:39.036Z,1.77
2018-03-16T14:24:06.613Z,1.30
2018-03-16T14:26:33.216Z,1.20
2018-03-16T14:29:04.880Z,1.23
2018-03-16T14:31:32.644Z,1.27
2018-03-16T14:34:07.340Z,1.77
2018-03-16T14:36:35.002Z,1.70
2018-03-16T14:39:08.747Z,1.50
2018-03-16T14:41:35.280Z,1.43
2018-03-16T14:44:10.708Z,1.90
2018-03-16T14:46:46.094Z,1.37
2018-03-16T14:49:27.123Z,1.50
2018-03-16T14:51:53.635Z,1.70
2018-03-16T14:54:23.516Z,1.57
2018-03-16T14:56:51.144Z,2.03
2018-03-16T14:59:17.877Z,1.47
2018-03-16T15:01:48.812Z,1.53
2018-03-16T15:04:44.507Z,1.83
2018-03-16T15:07:16.848Z,1.87
2018-03-16T15:09:46.232Z,2.13
2018-03-16T15:12:17.920Z,1.73
2018-03-16T15:14:47.448Z,1.70
2018-03-16T15:17:16.084Z,2.10
2018-03-16T15:19:44.676Z,1.87
2018-03-16T15:22:11.624Z,2.30
2018-03-16T15:24:41.051Z,1.53
2018-03-16T15:27:08.319Z,2.33
2018-03-16T15:29:37.440Z,1.97
2018-03-16T15:32:05.608Z,2.07
2018-03-16T15:34:32.836Z,1.03
2018-03-16T15:37:03.383Z,1.00
2018-03-16T15:39:35.819Z,1.50
2018-03-16T15:42:04.460Z,1.47
2018-03-16T15:44:32.128Z,1.30
2018-03-16T15:47:06.396Z,1.00
2018-03-16T15:49:37.840Z,1.67
2018-03-16T15:52:09.427Z,2.03
2018-03-16T15:54:37.908Z,1.30
2018-03-16T15:57:04.411Z,1.50
2018-03-16T15:59:33.636Z,1.77
2018-03-16T16:02:03.024Z,1.50
2018-03-16T16:04:35.378Z,1.50
2018-03-16T16:07:01.879Z,1.67
2018-03-16T16:09:30.391Z,1.30
2018-03-16T16:12:03.137Z,1.30
2018-03-16T16:14:31.120Z,1.73
2018-03-16T16:16:59.145Z,1.70
2018-03-16T16:19:30.900Z,1.50
2018-03-16T16:22:02.520Z,2.00
2018-03-16T16:24:33.039Z,1.80
2018-03-16T16:27:02.291Z,1.40
2018-03-16T16:29:29.924Z,1.53
2018-03-16T16:31:56.524Z,2.07
2018-03-16T16:34:31.437Z,1.30
2018-03-16T16:37:04.518Z,1.90
2018-03-16T16:39:32.940Z,1.50
2018-03-16T16:42:00.454Z,1.57
2018-03-16T16:44:26.988Z,1.70
2018-03-16T16:46:55.976Z,1.70
2018-03-16T16:49:22.912Z,2.50
2018-03-16T16:51:49.618Z,2.27
2018-03-16T16:54:30.268Z,1.73
2018-03-16T16:57:04.364Z,2.10
2018-03-16T16:59:31.015Z,2.03
2018-03-16T17:01:59.498Z,2.50
2018-03-16T17:04:28.908Z,2.40
2018-03-16T17:06:55.659Z,2.33
2018-03-16T17:09:22.991Z,2.07
2018-03-16T17:11:49.588Z,2.10
2018-03-16T17:14:21.034Z,1.70
2018-03-16T17:16:55.946Z,2.17
2018-03-16T17:19:31.416Z,2.40
2018-03-16T17:22:06.034Z,2.07
2018-03-16T17:24:36.864Z,2.00
2018-03-16T17:27:04.115Z,1.83
2018-03-16T17:29:30.849Z,1.80
2018-03-16T17:31:59.238Z,1.40
2018-03-16T17:34:26.999Z,1.70
2018-03-16T17:36:58.391Z,1.73
2018-03-16T17:39:25.920Z,1.67
2018-03-16T17:41:55.223Z,1.90
2018-03-16T17:44:35.372Z,1.80
2018-03-16T17:47:13.520Z,1.90
2018-03-16T17:49:46.812Z,2.73
2018-03-16T17:52:18.799Z,2.43
2018-03-16T17:54:59.509Z,2.87
2018-03-16T17:57:33.194Z,2.00
2018-03-16T18:00:11.211Z,2.20
2018-03-16T18:02:42.716Z,1.90
2018-03-16T18:05:15.828Z,2.43
2018-03-16T18:07:52.043Z,2.40
2018-03-16T18:10:19.757Z,1.80
2018-03-16T18:12:51.103Z,1.50
2018-03-16T18:15:19.528Z,2.13
2018-03-16T18:17:47.055Z,1.43
2018-03-16T18:20:21.484Z,1.27
2018-03-16T18:22:53.760Z,1.67
2018-03-16T18:25:26.614Z,1.43
2018-03-16T18:27:55.763Z,1.43
2018-03-16T18:30:22.287Z,1.83
2018-03-16T18:32:50.767Z,1.67
2018-03-16T18:35:18.236Z,1.60
2018-03-16T18:37:53.779Z,1.50
2018-03-16T18:40:24.192Z,2.03
2018-03-16T18:42:52.704Z,1.70
2018-03-16T18:45:36.048Z,1.80
2018-03-16T18:48:12.417Z,2.17
2018-03-16T18:50:59.829Z,1.93
2018-03-16T18:53:26.973Z,1.63
2018-03-16T18:56:04.944Z,1.63
2018-03-16T18:58:31.975Z,1.93
2018-03-16T19:01:02.552Z,2.10
2018-03-16T19:03:38.334Z,2.17
2018-03-16T19:06:05.575Z,2.70
2018-03-16T19:08:40.836Z,3.13
2018-03-16T19:11:07.565Z,5.90
2018-03-16T19:13:39.320Z,6.10
2018-03-16T19:16:09.035Z,6.67
2018-03-16T19:18:46.356Z,7.00
2018-03-16T19:21:15.004Z,9.60
2018-03-16T19:23:44.299Z,7.73
2018-03-16T19:26:13.048Z,4.60
2018-03-16T19:28:41.862Z,3.20
2018-03-16T19:31:11.816Z,3.50
2018-03-16T19:33:43.632Z,3.60
2018-03-16T19:36:11.364Z,3.10
2018-03-16T19:38:39.037Z,2.97
2018-03-16T19:41:06.728Z,3.03
2018-03-16T19:43:39.285Z,3.40
2018-03-16T19:46:10.447Z,3.97
2018-03-16T19:48:42.058Z,4.30
2018-03-16T19:51:11.360Z,3.53
2018-03-16T19:53:38.688Z,3.60
2018-03-16T19:56:11.642Z,3.70
2018-03-16T19:58:48.088Z,3.20
2018-03-16T20:01:18.660Z,4.10
2018-03-16T20:03:48.004Z,4.37
2018-03-16T20:06:21.625Z,4.93
2018-03-16T20:08:50.224Z,5.83
2018-03-16T20:11:23.812Z,5.33
2018-03-16T20:13:57.153Z,4.37
2018-03-16T20:16:29.778Z,5.20
2018-03-16T20:19:01.573Z,5.60
2018-03-16T20:21:28.197Z,5.27
2018-03-16T20:23:58.753Z,7.33
2018-03-16T20:26:25.452Z,6.00
2018-03-16T20:28:56.411Z,6.33
2018-03-16T20:31:31.420Z,6.17
2018-03-16T20:34:01.892Z,6.13
2018-03-16T20:36:29.000Z,6.50
2018-03-16T20:38:58.587Z,5.70
2018-03-16T20:41:29.418Z,5.53
2018-03-16T20:43:58.770Z,4.80
2018-03-16T20:46:40.072Z,5.20
2018-03-16T20:49:11.703Z,5.93
2018-03-16T20:51:40.103Z,5.43
2018-03-16T20:54:12.580Z,4.90
2018-03-16T20:56:40.098Z,4.07
2018-03-16T20:59:19.420Z,4.17
2018-03-16T21:01:52.843Z,5.03
2018-03-16T21:04:21.397Z,5.63
2018-03-16T21:06:59.465Z,5.60
2018-03-16T21:09:26.777Z,6.07
2018-03-16T21:11:58.542Z,6.63
2018-03-16T21:14:26.027Z,7.80
2018-03-16T21:16:55.429Z,7.30
2018-03-16T21:19:24.096Z,8.30
2018-03-16T21:21:53.237Z,8.93
2018-03-16T21:24:26.704Z,8.93
2018-03-16T21:26:57.069Z,9.80
2018-03-16T21:29:24.827Z,8.97
2018-03-16T21:31:51.501Z,9.70
2018-03-16T21:34:26.252Z,10.00
2018-03-16T21:36:58.215Z,11.00
2018-03-16T21:39:35.209Z,10.37
2018-03-16T21:42:10.032Z,11.07
2018-03-16T21:44:40.171Z,9.57
2018-03-16T21:47:07.649Z,9.90
2018-03-16T21:49:50.034Z,9.63
2018-03-16T21:52:36.245Z,9.37
2018-03-16T21:55:08.428Z,9.50
2018-03-16T21:57:36.413Z,10.03
2018-03-16T22:00:04.865Z,9.37
2018-03-16T22:02:36.468Z,8.90
2018-03-16T22:05:04.825Z,11.87
2018-03-16T22:07:33.288Z,11.93
2018-03-16T22:10:00.913Z,12.77
2018-03-16T22:12:31.288Z,12.77
2018-03-16T22:14:59.616Z,14.67
2018-03-16T22:17:27.204Z,18.03
2018-03-16T22:19:55.613Z,24.00
2018-03-16T22:22:22.452Z,24.17
2018-03-16T22:24:49.543Z,26.90
2018-03-16T22:27:16.888Z,27.93
2018-03-16T22:29:50.555Z,26.07
2018-03-16T22:32:17.296Z,26.40
2018-03-16T22:34:45.775Z,26.10
2018-03-16T22:37:28.117Z,28.83
2018-03-16T22:39:57.346Z,25.20
2018-03-16T22:42:31.648Z,28.20
2018-03-16T22:44:58.450Z,23.63
2018-03-16T22:47:25.056Z,22.67
2018-03-16T22:49:59.512Z,22.27
2018-03-16T22:52:31.568Z,20.73
2018-03-16T22:55:10.204Z,21.97
2018-03-16T22:57:37.936Z,21.20
2018-03-16T23:00:09.116Z,21.33
2018-03-16T23:02:37.842Z,20.07
2018-03-16T23:05:07.995Z,21.73
2018-03-16T23:07:38.802Z,24.13
2018-03-16T23:10:14.625Z,25.13
2018-03-16T23:12:41.844Z,23.10
2018-03-16T23:15:08.552Z,24.03
2018-03-16T23:17:45.434Z,23.37
2018-03-16T23:20:13.971Z,25.60
2018-03-16T23:22:50.312Z,24.27
2018-03-16T23:25:20.241Z,26.50
2018-03-16T23:27:46.767Z,27.70
2018-03-16T23:30:15.447Z,25.23
2018-03-16T23:32:43.100Z,25.40
2018-03-16T23:35:12.744Z,27.10
2018-03-16T23:37:46.267Z,27.03
2018-03-16T23:40:15.172Z,26.13
2018-03-16T23:42:41.849Z,26.93
2018-03-16T23:45:16.592Z,32.00
2018-03-16T23:47:46.208Z,31.57
2018-03-16T23:50:13.854Z,31.00
2018-03-16T23:52:42.168Z,30.20
2018-03-16T23:55:09.557Z,27.80
2018-03-16T23:57:41.497Z,28.20
